createdAt,value
2017-12-20T00:01:47.042Z,23.85
2017-12-20T00:04:16.119Z,24.95
2017-12-20T00:06:45.218Z,20.65
2017-12-20T00:09:15.811Z,19.45
2017-12-20T00:11:44.909Z,24.63
2017-12-20T00:14:14.002Z,19.90
2017-12-20T00:16:44.209Z,17.95
2017-12-20T00:19:13.353Z,17.80
2017-12-20T00:21:42.482Z,17.25
2017-12-20T00:24:11.973Z,22.77
2017-12-20T00:26:41.090Z,18.25
2017-12-20T00:29:10.313Z,18.42
2017-12-20T00:31:39.530Z,18.98
2017-12-20T00:34:08.682Z,20.48
2017-12-20T00:36:37.798Z,21.10
2017-12-20T00:39:07.530Z,15.98
2017-12-20T00:41:36.841Z,21.17
2017-12-20T00:44:06.040Z,18.45
2017-12-20T00:46:35.452Z,25.27
2017-12-20T00:49:04.629Z,20.48
2017-12-20T00:51:34.548Z,21.87
2017-12-20T00:54:03.728Z,20.65
2017-12-20T00:56:33.386Z,19.90
2017-12-20T00:59:04.396Z,18.58
2017-12-20T01:01:33.610Z,18.85
2017-12-20T01:04:02.852Z,21.37
2017-12-20T01:06:32.230Z,21.05
2017-12-20T01:09:01.526Z,23.27
2017-12-20T01:11:30.708Z,19.37
2017-12-20T01:14:00.806Z,22.70
2017-12-20T01:16:29.936Z,25.62
2017-12-20T01:18:59.065Z,23.87
2017-12-20T01:21:28.459Z,22.42
2017-12-20T01:23:58.268Z,20.83
2017-12-20T01:26:27.362Z,27.52
2017-12-20T01:28:56.498Z,21.80
2017-12-20T01:31:26.095Z,27.80
2017-12-20T01:33:55.194Z,26.10
2017-12-20T01:36:24.330Z,21.75
2017-12-20T01:38:53.432Z,27.23
2017-12-20T01:41:22.601Z,26.17
2017-12-20T01:43:52.114Z,26.77
2017-12-20T01:46:21.200Z,27.58
2017-12-20T01:48:51.093Z,25.48
2017-12-20T01:51:20.218Z,27.48
2017-12-20T01:53:49.329Z,25.10
2017-12-20T01:56:19.271Z,27.48
2017-12-20T01:58:49.955Z,31.50
2017-12-20T02:01:19.061Z,27.85
2017-12-20T02:03:48.143Z,26.27
2017-12-20T02:06:17.717Z,22.98
2017-12-20T02:08:46.848Z,29.02
2017-12-20T02:11:15.940Z,29.77
2017-12-20T02:13:45.242Z,29.70
2017-12-20T02:16:14.351Z,30.15
2017-12-20T02:18:43.522Z,37.95
2017-12-20T02:21:13.482Z,42.62
2017-12-20T02:23:42.745Z,30.67
2017-12-20T02:26:12.751Z,36.63
2017-12-20T02:28:42.136Z,36.67
2017-12-20T02:31:11.345Z,39.65
2017-12-20T02:33:40.667Z,38.28
2017-12-20T02:36:09.930Z,30.12
2017-12-20T02:38:40.012Z,32.60
2017-12-20T02:41:09.328Z,40.97
2017-12-20T02:43:39.689Z,38.92
2017-12-20T02:46:08.891Z,35.90
2017-12-20T02:48:38.084Z,34.10
2017-12-20T02:51:07.650Z,41.40
2017-12-20T02:53:36.849Z,36.70
2017-12-20T02:56:06.173Z,34.35
2017-12-20T02:58:36.491Z,37.63
2017-12-20T03:01:05.691Z,37.58
2017-12-20T03:03:34.955Z,36.40
2017-12-20T03:06:05.075Z,35.08
2017-12-20T03:08:34.412Z,37.25
2017-12-20T03:11:03.670Z,35.65
2017-12-20T03:13:34.291Z,27.67
2017-12-20T03:16:03.467Z,30.02
2017-12-20T03:18:32.698Z,43.45
2017-12-20T03:21:02.003Z,34.55
2017-12-20T03:23:31.196Z,35.17
2017-12-20T03:26:00.323Z,49.53
2017-12-20T03:28:29.587Z,49.55
2017-12-20T03:30:58.670Z,43.13
2017-12-20T03:33:27.816Z,34.53
2017-12-20T03:35:57.999Z,32.42
2017-12-20T03:38:27.143Z,35.45
2017-12-20T03:40:56.267Z,32.08
2017-12-20T03:43:26.662Z,38.67
2017-12-20T03:45:55.851Z,37.28
2017-12-20T03:48:24.984Z,37.15
2017-12-20T03:50:54.150Z,36.50
2017-12-20T03:53:23.254Z,47.22
2017-12-20T03:55:52.342Z,27.23
2017-12-20T03:58:22.355Z,37.38
2017-12-20T04:00:57.694Z,38.50
2017-12-20T04:03:27.541Z,28.83
2017-12-20T04:05:56.658Z,32.50
2017-12-20T04:08:25.770Z,32.10
2017-12-20T04:10:56.080Z,25.98
2017-12-20T04:13:25.226Z,26.10
2017-12-20T04:15:55.112Z,22.40
2017-12-20T04:18:24.338Z,29.50
2017-12-20T04:20:53.459Z,25.48
2017-12-20T04:23:23.419Z,29.55
2017-12-20T04:25:52.569Z,24.42
2017-12-20T04:28:21.685Z,28.58
2017-12-20T04:30:50.785Z,27.17
2017-12-20T04:33:20.765Z,24.90
2017-12-20T04:35:50.639Z,26.45
2017-12-20T04:38:19.754Z,23.20
2017-12-20T04:40:49.163Z,21.98
2017-12-20T04:43:18.270Z,28.58
2017-12-20T04:45:47.408Z,39.70
2017-12-20T04:48:16.580Z,20.83
2017-12-20T04:50:45.708Z,28.38
2017-12-20T04:53:14.849Z,24.05
2017-12-20T04:55:45.462Z,24.48
2017-12-20T04:58:14.547Z,25.70
2017-12-20T05:00:43.708Z,23.60
2017-12-20T05:03:12.907Z,29.15
2017-12-20T05:05:42.145Z,22.62
2017-12-20T05:08:11.378Z,24.05
2017-12-20T05:10:42.646Z,24.50
2017-12-20T05:13:11.787Z,25.25
2017-12-20T05:15:41.217Z,26.02
2017-12-20T05:18:13.238Z,22.70
2017-12-20T05:20:42.411Z,21.45
2017-12-20T05:23:11.659Z,22.90
2017-12-20T05:25:41.033Z,20.23
2017-12-20T05:28:10.479Z,24.52
2017-12-20T05:30:39.612Z,18.65
2017-12-20T05:33:11.834Z,22.65
2017-12-20T05:35:41.841Z,23.92
2017-12-20T05:38:11.034Z,21.95
2017-12-20T05:40:40.418Z,18.60
2017-12-20T05:43:10.334Z,21.37
2017-12-20T05:45:39.758Z,16.73
2017-12-20T05:48:09.144Z,21.37
2017-12-20T05:50:38.484Z,19.60
2017-12-20T05:53:07.684Z,17.10
2017-12-20T05:55:37.492Z,17.60
2017-12-20T05:58:07.503Z,22.48
2017-12-20T06:00:36.898Z,17.20
2017-12-20T06:03:06.413Z,22.75
2017-12-20T06:05:35.687Z,17.48
2017-12-20T06:08:04.984Z,16.95
2017-12-20T06:10:35.647Z,17.85
2017-12-20T06:13:04.839Z,18.45
2017-12-20T06:15:34.186Z,17.62
2017-12-20T06:18:04.462Z,15.82
2017-12-20T06:20:33.735Z,24.05
2017-12-20T06:23:02.959Z,16.95
2017-12-20T06:25:32.391Z,16.70
2017-12-20T06:28:01.597Z,20.92
2017-12-20T06:30:30.763Z,19.62
2017-12-20T06:33:00.885Z,19.90
2017-12-20T06:35:30.780Z,19.20
2017-12-20T06:37:59.938Z,18.52
2017-12-20T06:40:29.852Z,17.55
2017-12-20T06:42:58.967Z,23.75
2017-12-20T06:45:28.853Z,16.65
2017-12-20T06:47:59.409Z,17.85
2017-12-20T06:50:28.533Z,17.62
2017-12-20T06:52:57.652Z,22.27
2017-12-20T06:55:27.903Z,17.15
2017-12-20T06:57:56.998Z,20.95
2017-12-20T07:00:28.440Z,22.83
2017-12-20T07:02:57.539Z,20.27
2017-12-20T07:05:27.425Z,21.30
2017-12-20T07:07:56.624Z,20.15
2017-12-20T07:10:25.738Z,23.50
2017-12-20T07:12:54.847Z,22.75
2017-12-20T07:15:24.752Z,26.98
2017-12-20T07:17:54.665Z,26.35
2017-12-20T07:20:23.819Z,30.12
2017-12-20T07:22:53.381Z,21.37
2017-12-20T07:25:22.469Z,29.65
2017-12-20T07:27:51.584Z,32.03
2017-12-20T07:30:21.138Z,21.35
2017-12-20T07:32:50.233Z,23.73
2017-12-20T07:35:19.375Z,21.75
2017-12-20T07:37:49.397Z,26.85
2017-12-20T07:40:19.297Z,20.95
2017-12-20T07:42:48.438Z,18.23
2017-12-20T07:45:17.686Z,26.62
2017-12-20T07:47:47.801Z,20.23
2017-12-20T07:50:16.918Z,23.25
2017-12-20T07:52:46.499Z,21.73
2017-12-20T07:55:15.597Z,25.10
2017-12-20T07:57:44.688Z,19.70
2017-12-20T08:00:15.335Z,21.02
2017-12-20T08:02:44.469Z,18.87
2017-12-20T08:05:13.688Z,23.70
2017-12-20T08:07:42.919Z,20.40
2017-12-20T08:10:13.769Z,21.67
2017-12-20T08:12:42.925Z,17.12
2017-12-20T08:15:12.071Z,14.57
2017-12-20T08:17:41.175Z,17.65
2017-12-20T08:20:10.378Z,19.45
2017-12-20T08:22:39.677Z,17.67
2017-12-20T08:25:09.709Z,21.08
2017-12-20T08:27:38.882Z,15.32
2017-12-20T08:30:08.048Z,15.43
2017-12-20T08:32:37.191Z,14.57
2017-12-20T08:35:06.473Z,16.90
2017-12-20T08:37:36.514Z,14.60
2017-12-20T08:40:05.706Z,16.98
2017-12-20T08:42:35.002Z,18.20
2017-12-20T08:45:06.146Z,20.35
2017-12-20T08:47:35.490Z,14.05
2017-12-20T08:50:04.647Z,16.87
2017-12-20T08:52:35.451Z,15.63
2017-12-20T08:55:05.499Z,16.50
2017-12-20T08:57:34.757Z,24.12
2017-12-20T09:00:05.348Z,18.12
2017-12-20T09:02:35.650Z,14.98
2017-12-20T09:05:04.875Z,13.57
2017-12-20T09:07:35.715Z,14.25
2017-12-20T09:10:05.007Z,19.05
2017-12-20T09:12:34.166Z,14.60
2017-12-20T09:15:04.640Z,18.55
2017-12-20T09:17:33.917Z,16.55
2017-12-20T09:20:04.344Z,13.55
2017-12-20T09:22:34.374Z,15.82
2017-12-20T09:25:04.763Z,19.33
2017-12-20T09:27:33.906Z,15.15
2017-12-20T09:30:03.178Z,18.35
2017-12-20T09:32:32.354Z,20.10
2017-12-20T09:35:01.721Z,14.87
2017-12-20T09:37:31.081Z,17.80
2017-12-20T09:40:01.360Z,14.75
2017-12-20T09:42:30.901Z,15.23
2017-12-20T09:45:00.476Z,17.58
2017-12-20T09:47:30.392Z,17.92
2017-12-20T09:49:59.596Z,23.70
2017-12-20T09:52:28.979Z,25.27
2017-12-20T09:54:58.092Z,16.87
2017-12-20T09:57:27.202Z,20.58
2017-12-20T09:59:58.682Z,19.45
2017-12-20T10:02:27.801Z,22.20
2017-12-20T10:04:57.228Z,22.73
2017-12-20T10:07:27.155Z,20.08
2017-12-20T10:09:56.246Z,15.32
2017-12-20T10:12:25.349Z,20.00
2017-12-20T10:14:54.926Z,15.88
2017-12-20T10:17:25.066Z,15.18
2017-12-20T10:19:55.080Z,22.37
2017-12-20T10:22:24.191Z,20.33
2017-12-20T10:24:54.063Z,19.73
2017-12-20T10:27:23.642Z,23.95
2017-12-20T10:29:52.772Z,19.80
2017-12-20T10:32:21.924Z,18.85
2017-12-20T10:34:52.630Z,15.55
2017-12-20T10:37:22.367Z,19.02
2017-12-20T10:39:51.682Z,15.60
2017-12-20T10:42:21.192Z,17.52
2017-12-20T10:44:51.634Z,22.37
2017-12-20T10:47:23.392Z,16.55
2017-12-20T10:49:53.378Z,25.20
2017-12-20T10:52:22.666Z,16.85
2017-12-20T10:54:54.819Z,20.62
2017-12-20T10:57:24.151Z,16.45
2017-12-20T10:59:53.540Z,20.27
2017-12-20T11:02:24.421Z,15.77
2017-12-20T11:04:54.386Z,21.23
2017-12-20T11:07:23.609Z,19.23
2017-12-20T11:09:54.613Z,21.40
2017-12-20T11:12:23.844Z,17.50
2017-12-20T11:14:53.811Z,14.52
2017-12-20T11:17:23.088Z,16.65
2017-12-20T11:19:52.252Z,24.80
2017-12-20T11:22:22.328Z,15.57
2017-12-20T11:24:51.856Z,18.58
2017-12-20T11:27:21.058Z,18.25
2017-12-20T11:29:50.154Z,17.58
2017-12-20T11:32:20.158Z,17.87
2017-12-20T11:34:49.258Z,19.10
2017-12-20T11:37:18.367Z,21.15
2017-12-20T11:39:47.546Z,18.62
2017-12-20T11:42:17.638Z,15.38
2017-12-20T11:44:47.186Z,16.23
2017-12-20T11:47:16.982Z,20.60
2017-12-20T11:49:47.907Z,20.73
2017-12-20T11:52:17.950Z,26.85
2017-12-20T11:54:47.050Z,20.12
2017-12-20T11:57:17.022Z,23.38
2017-12-20T11:59:47.499Z,21.90
2017-12-20T12:02:16.643Z,19.80
2017-12-20T12:04:45.770Z,19.67
2017-12-20T12:07:15.701Z,22.27
2017-12-20T12:09:44.920Z,17.55
2017-12-20T12:12:14.900Z,20.10
2017-12-20T12:14:44.207Z,23.80
2017-12-20T12:17:13.320Z,22.40
2017-12-20T12:19:42.402Z,24.10
2017-12-20T12:22:11.701Z,18.73
2017-12-20T12:24:40.986Z,22.75
2017-12-20T12:27:11.021Z,25.35
2017-12-20T12:29:41.031Z,27.87
2017-12-20T12:32:10.512Z,24.00
2017-12-20T12:34:39.951Z,18.65
2017-12-20T12:37:10.232Z,19.40
2017-12-20T12:39:39.888Z,26.95
2017-12-20T12:42:09.219Z,22.52
2017-12-20T12:44:39.271Z,29.90
2017-12-20T12:47:08.395Z,20.55
2017-12-20T12:49:37.885Z,31.60
2017-12-20T12:52:07.984Z,24.30
2017-12-20T12:54:37.633Z,32.95
2017-12-20T12:57:07.875Z,23.23
2017-12-20T12:59:37.640Z,23.00
2017-12-20T13:02:06.756Z,31.08
2017-12-20T13:04:35.921Z,21.35
2017-12-20T13:07:05.445Z,22.40
2017-12-20T13:09:34.628Z,20.12
2017-12-20T13:12:03.748Z,21.95
2017-12-20T13:14:33.993Z,20.15
2017-12-20T13:17:03.971Z,20.77
2017-12-20T13:19:33.178Z,21.52
2017-12-20T13:22:02.504Z,20.75
2017-12-20T13:24:32.569Z,20.23
2017-12-20T13:27:01.851Z,34.80
2017-12-20T13:29:31.138Z,27.20
2017-12-20T13:32:00.289Z,24.25
2017-12-20T13:34:29.507Z,23.95
2017-12-20T13:36:59.510Z,23.23
2017-12-20T13:39:28.727Z,28.27
2017-12-20T13:41:58.004Z,18.25
2017-12-20T13:44:27.962Z,21.20
2017-12-20T13:46:57.219Z,19.25
2017-12-20T13:49:26.442Z,24.15
2017-12-20T13:51:57.765Z,16.37
2017-12-20T13:54:27.020Z,17.55
2017-12-20T13:56:57.019Z,17.50
2017-12-20T13:59:26.644Z,20.85
2017-12-20T14:01:55.803Z,19.30
2017-12-20T14:04:25.024Z,15.95
2017-12-20T14:06:54.457Z,17.87
2017-12-20T14:09:23.630Z,16.27
2017-12-20T14:11:52.849Z,14.82
2017-12-20T14:14:22.226Z,18.83
2017-12-20T14:16:51.314Z,18.17
2017-12-20T14:19:20.499Z,16.42
2017-12-20T14:21:50.861Z,10.38
2017-12-20T14:24:19.978Z,13.62
2017-12-20T14:26:49.108Z,15.88
2017-12-20T14:29:18.284Z,11.95
2017-12-20T14:31:47.422Z,16.58
2017-12-20T14:34:16.566Z,16.92
2017-12-20T14:36:46.609Z,14.23
2017-12-20T14:39:15.797Z,15.73
2017-12-20T14:41:45.707Z,19.73
2017-12-20T14:44:15.702Z,13.38
2017-12-20T14:46:44.796Z,12.27
2017-12-20T14:49:13.890Z,10.70
2017-12-20T14:51:43.639Z,9.95
2017-12-20T14:54:12.800Z,13.35
2017-12-20T14:56:41.950Z,14.80
2017-12-20T14:59:12.931Z,15.00
2017-12-20T15:01:42.127Z,14.32
2017-12-20T15:04:11.253Z,14.43
2017-12-20T15:06:40.523Z,17.67
2017-12-20T15:09:09.665Z,12.32
2017-12-20T15:11:38.870Z,11.68
2017-12-20T15:14:09.043Z,13.30
2017-12-20T15:16:38.219Z,13.07
2017-12-20T15:19:08.110Z,20.85
2017-12-20T15:21:37.281Z,19.60
2017-12-20T15:24:06.397Z,13.43
2017-12-20T15:26:36.600Z,12.95
2017-12-20T15:29:05.871Z,15.57
2017-12-20T15:31:35.067Z,23.17
2017-12-20T15:34:05.046Z,20.10
2017-12-20T15:36:34.584Z,18.35
2017-12-20T15:39:03.810Z,20.35
2017-12-20T15:41:32.940Z,20.65
2017-12-20T15:44:02.331Z,25.27
2017-12-20T15:46:31.490Z,25.77
2017-12-20T15:49:00.671Z,31.80
2017-12-20T15:51:30.814Z,25.62
2017-12-20T15:54:00.625Z,26.10
2017-12-20T15:56:30.574Z,32.47
2017-12-20T15:59:00.221Z,41.88
2017-12-20T16:01:29.464Z,35.63
2017-12-20T16:03:58.684Z,34.33
2017-12-20T16:06:28.638Z,33.85
2017-12-20T16:08:57.903Z,29.60
2017-12-20T16:11:27.114Z,23.58
2017-12-20T16:13:56.701Z,24.83
2017-12-20T16:16:25.921Z,22.30
2017-12-20T16:18:55.202Z,26.20
2017-12-20T16:21:25.292Z,22.77
2017-12-20T16:23:54.621Z,25.40
2017-12-20T16:26:23.924Z,31.58
2017-12-20T16:28:55.119Z,26.67
2017-12-20T16:31:25.223Z,45.40
2017-12-20T16:33:54.482Z,38.40
2017-12-20T16:36:23.883Z,43.72
2017-12-20T16:38:53.912Z,41.00
2017-12-20T16:41:23.208Z,37.38
2017-12-20T16:43:53.134Z,36.20
2017-12-20T16:46:22.423Z,36.97
2017-12-20T16:48:52.760Z,35.78
2017-12-20T16:51:22.232Z,38.45
2017-12-20T16:53:52.279Z,47.97
2017-12-20T16:56:21.550Z,31.95
2017-12-20T16:58:51.053Z,36.30
2017-12-20T17:01:21.241Z,52.25
2017-12-20T17:03:50.464Z,28.73
2017-12-20T17:06:19.939Z,51.70
2017-12-20T17:08:49.092Z,42.67
2017-12-20T17:11:18.278Z,45.03
2017-12-20T17:13:47.458Z,45.75
2017-12-20T17:16:17.367Z,42.47
2017-12-20T17:18:46.595Z,41.35
2017-12-20T17:21:16.592Z,45.33
2017-12-20T17:23:45.699Z,40.35
2017-12-20T17:26:14.859Z,32.80
2017-12-20T17:28:45.535Z,35.33
2017-12-20T17:31:14.634Z,33.35
2017-12-20T17:33:43.981Z,28.20
2017-12-20T17:36:14.659Z,25.45
2017-12-20T17:38:44.533Z,23.45
2017-12-20T17:41:14.677Z,25.00
2017-12-20T17:43:44.155Z,22.45
2017-12-20T17:46:14.055Z,30.70
2017-12-20T17:48:43.215Z,23.60
2017-12-20T17:51:12.582Z,19.35
2017-12-20T17:53:41.706Z,18.25
2017-12-20T17:56:10.808Z,21.80
2017-12-20T17:58:40.044Z,23.00
2017-12-20T18:01:10.031Z,25.85
2017-12-20T18:03:39.196Z,22.90
2017-12-20T18:06:08.432Z,25.73
2017-12-20T18:08:37.588Z,26.60
2017-12-20T18:11:06.741Z,24.50
2017-12-20T18:13:35.907Z,27.80
2017-12-20T18:16:05.124Z,24.37
2017-12-20T18:18:34.278Z,26.85
2017-12-20T18:21:03.419Z,30.92
2017-12-20T18:23:32.535Z,27.23
2017-12-20T18:26:01.658Z,29.37
2017-12-20T18:28:31.863Z,33.70
2017-12-20T18:31:00.985Z,34.67
2017-12-20T18:33:30.157Z,30.02
2017-12-20T18:35:59.700Z,31.15
2017-12-20T18:38:28.899Z,29.70
2017-12-20T18:40:58.010Z,27.60
2017-12-20T18:43:27.477Z,35.75
2017-12-20T18:45:57.349Z,18.42
2017-12-20T18:48:26.502Z,27.48
2017-12-20T18:50:56.643Z,28.83
2017-12-20T18:53:26.149Z,24.50
2017-12-20T18:55:55.361Z,27.87
2017-12-20T18:58:25.401Z,20.92
2017-12-20T19:00:55.349Z,20.25
2017-12-20T19:03:24.513Z,19.67
2017-12-20T19:05:54.300Z,33.20
2017-12-20T19:08:23.672Z,22.45
2017-12-20T19:10:54.339Z,22.35
2017-12-20T19:13:23.708Z,39.50
2017-12-20T19:15:52.903Z,22.25
2017-12-20T19:18:22.115Z,27.73
2017-12-20T19:20:52.712Z,24.45
2017-12-20T19:23:21.818Z,40.83
2017-12-20T19:25:51.324Z,38.58
2017-12-20T19:28:21.010Z,38.50
2017-12-20T19:30:50.263Z,42.92
2017-12-20T19:33:19.733Z,36.75
2017-12-20T19:35:50.210Z,22.95
2017-12-20T19:38:19.495Z,26.58
2017-12-20T19:40:49.404Z,28.77
2017-12-20T19:43:19.776Z,24.45
2017-12-20T19:45:48.898Z,32.47
2017-12-20T19:48:18.014Z,49.90
2017-12-20T19:50:48.532Z,44.50
2017-12-20T19:53:17.732Z,17.10
2017-12-20T19:55:46.853Z,27.08
2017-12-20T19:58:16.156Z,27.08
2017-12-20T20:00:45.291Z,27.60
2017-12-20T20:03:14.392Z,24.65
2017-12-20T20:05:44.030Z,24.98
2017-12-20T20:08:13.138Z,29.17
2017-12-20T20:10:42.242Z,33.05
2017-12-20T20:13:11.487Z,45.75
2017-12-20T20:15:40.574Z,34.63
2017-12-20T20:18:11.203Z,28.95
2017-12-20T20:20:41.140Z,43.65
2017-12-20T20:23:10.225Z,36.70
2017-12-20T20:25:39.403Z,50.17
2017-12-20T20:28:09.811Z,39.58
2017-12-20T20:30:39.684Z,39.70
2017-12-20T20:33:08.862Z,29.05
2017-12-20T20:35:38.256Z,28.65
2017-12-20T20:38:07.338Z,31.90
2017-12-20T20:40:36.478Z,29.00
2017-12-20T20:43:05.671Z,36.75
2017-12-20T20:45:35.679Z,32.13
2017-12-20T20:48:04.899Z,32.95
2017-12-20T20:50:34.679Z,30.12
2017-12-20T20:53:03.793Z,29.63
2017-12-20T20:55:33.032Z,37.13
2017-12-20T20:58:02.608Z,37.25
2017-12-20T21:00:31.803Z,30.10
2017-12-20T21:03:00.969Z,26.30
2017-12-20T21:05:30.320Z,23.60
2017-12-20T21:07:59.450Z,27.52
2017-12-20T21:10:28.619Z,27.27
2017-12-20T21:12:57.828Z,29.65
2017-12-20T21:15:27.085Z,33.55
2017-12-20T21:17:57.079Z,38.85
2017-12-20T21:20:26.916Z,30.42
2017-12-20T21:22:56.829Z,24.48
2017-12-20T21:25:25.976Z,24.40
2017-12-20T21:27:55.219Z,36.90
2017-12-20T21:30:24.471Z,27.73
2017-12-20T21:32:54.619Z,35.50
2017-12-20T21:35:25.322Z,27.23
2017-12-20T21:37:54.488Z,24.08
2017-12-20T21:40:23.599Z,35.38
2017-12-20T21:42:52.875Z,32.78
2017-12-20T21:45:22.801Z,31.83
2017-12-20T21:47:52.702Z,29.40
2017-12-20T21:50:22.752Z,31.17
2017-12-20T21:52:52.675Z,37.70
2017-12-20T21:55:22.612Z,30.83
2017-12-20T21:57:52.166Z,32.78
2017-12-20T22:00:21.319Z,30.58
2017-12-20T22:02:50.545Z,34.63
2017-12-20T22:05:21.017Z,38.13
2017-12-20T22:07:50.281Z,32.08
2017-12-20T22:10:19.749Z,33.47
2017-12-20T22:12:50.039Z,35.35
2017-12-20T22:15:19.492Z,43.70
2017-12-20T22:17:48.992Z,41.53
2017-12-20T22:20:19.880Z,41.10
2017-12-20T22:22:49.000Z,27.90
2017-12-20T22:25:18.151Z,59.13
2017-12-20T22:27:48.055Z,42.65
2017-12-20T22:30:17.144Z,34.75
2017-12-20T22:32:46.276Z,56.15
2017-12-20T22:35:15.987Z,48.70
2017-12-20T22:37:45.101Z,40.88
2017-12-20T22:40:14.198Z,47.80
2017-12-20T22:42:43.447Z,41.30
2017-12-20T22:45:12.592Z,49.10
2017-12-20T22:47:41.739Z,50.60
2017-12-20T22:50:10.888Z,35.95
2017-12-20T22:52:39.997Z,28.00
2017-12-20T22:55:09.862Z,44.03
2017-12-20T22:57:40.620Z,41.03
2017-12-20T23:00:09.862Z,40.25
2017-12-20T23:02:38.998Z,32.60
2017-12-20T23:05:08.352Z,36.65
2017-12-20T23:07:37.547Z,26.35
2017-12-20T23:10:06.638Z,34.42
2017-12-20T23:12:36.707Z,31.02
2017-12-20T23:15:06.841Z,37.38
2017-12-20T23:17:36.056Z,28.17
2017-12-20T23:20:05.426Z,29.17
2017-12-20T23:22:34.531Z,31.73
2017-12-20T23:25:03.660Z,22.95
2017-12-20T23:27:33.600Z,20.27
2017-12-20T23:30:02.730Z,25.50
2017-12-20T23:32:31.949Z,28.67
2017-12-20T23:35:01.251Z,28.42
2017-12-20T23:37:30.445Z,22.48
2017-12-20T23:39:59.538Z,16.87
2017-12-20T23:42:29.056Z,16.85
2017-12-20T23:44:59.059Z,21.75
2017-12-20T23:47:29.178Z,22.83
2017-12-20T23:49:58.427Z,15.50
2017-12-20T23:52:27.571Z,20.85
2017-12-20T23:54:57.584Z,15.32
2017-12-20T23:57:26.684Z,17.80
2017-12-20T23:59:55.780Z,12.20
